Warner, Illinois
Current Conditions -  °F | °C
As of 6:52 PM on Friday 28 Nov 2014 (Local Time) from KMLI Reporting Station
Clear Clear  
Wind Chill: 27°   Ceiling: Unl
Heat Index: 34°   Visibility: 7mi
Dew Point: 29°   Wind: 9mph
Humidity: 82%   Direction: 150°SSE
Pressure: 29.85"   Gusts: NA
Location:  41.3669°N, 90.3966°W
Report Text: KMLI 290052Z 15008KT 7SM CLR 01/M02 A2985 RMK AO2 SLP117 T00111017
Loading
Personal Weather Stations






























Interactive Weather Map New forecast layout! Learn more

10-Day Weather Forecast

Advertisements
Track Severe Weather on mobile